sensor_id;sensor_type;location;lat;lon;timestamp;P1;durP1;ratioP1;P2;durP2;ratioP2
72676;SDS011;60755;51.374;10.662;2023-12-20T00:02:18;2.20;;;2.10;;
72676;SDS011;60755;51.374;10.662;2023-12-20T00:04:45;2.60;;;2.50;;
72676;SDS011;60755;51.374;10.662;2023-12-20T00:07:13;2.37;;;2.27;;
72676;SDS011;60755;51.374;10.662;2023-12-20T00:09:40;1.97;;;1.87;;
72676;SDS011;60755;51.374;10.662;2023-12-20T00:12:09;2.07;;;2.00;;
72676;SDS011;60755;51.374;10.662;2023-12-20T00:14:36;1.90;;;1.90;;
72676;SDS011;60755;51.374;10.662;2023-12-20T00:17:04;1.87;;;1.87;;
72676;SDS011;60755;51.374;10.662;2023-12-20T00:19:31;2.40;;;2.30;;
72676;SDS011;60755;51.374;10.662;2023-12-20T00:21:58;2.20;;;2.00;;
72676;SDS011;60755;51.374;10.662;2023-12-20T00:24:26;2.00;;;1.90;;
72676;SDS011;60755;51.374;10.662;2023-12-20T00:26:53;2.00;;;2.00;;
72676;SDS011;60755;51.374;10.662;2023-12-20T00:29:22;2.03;;;1.93;;
72676;SDS011;60755;51.374;10.662;2023-12-20T00:31:49;2.30;;;2.20;;
72676;SDS011;60755;51.374;10.662;2023-12-20T00:34:16;2.40;;;2.30;;
72676;SDS011;60755;51.374;10.662;2023-12-20T00:36:43;1.97;;;1.90;;
72676;SDS011;60755;51.374;10.662;2023-12-20T00:39:10;2.53;;;2.30;;
72676;SDS011;60755;51.374;10.662;2023-12-20T00:41:38;2.40;;;2.30;;
72676;SDS011;60755;51.374;10.662;2023-12-20T00:44:05;2.10;;;2.00;;
72676;SDS011;60755;51.374;10.662;2023-12-20T00:46:34;2.10;;;2.00;;
72676;SDS011;60755;51.374;10.662;2023-12-20T00:49:01;2.23;;;2.13;;
72676;SDS011;60755;51.374;10.662;2023-12-20T00:51:28;2.43;;;2.23;;
72676;SDS011;60755;51.374;10.662;2023-12-20T00:53:55;2.20;;;2.10;;
72676;SDS011;60755;51.374;10.662;2023-12-20T00:56:23;2.40;;;2.30;;
72676;SDS011;60755;51.374;10.662;2023-12-20T00:58:50;2.20;;;2.10;;
72676;SDS011;60755;51.374;10.662;2023-12-20T01:01:17;2.30;;;2.20;;
72676;SDS011;60755;51.374;10.662;2023-12-20T01:03:46;2.07;;;1.97;;
72676;SDS011;60755;51.374;10.662;2023-12-20T01:06:13;2.10;;;2.00;;
72676;SDS011;60755;51.374;10.662;2023-12-20T01:08:41;2.07;;;2.07;;
72676;SDS011;60755;51.374;10.662;2023-12-20T01:11:08;2.20;;;2.10;;
72676;SDS011;60755;51.374;10.662;2023-12-20T01:13:35;1.90;;;1.90;;
72676;SDS011;60755;51.374;10.662;2023-12-20T01:16:03;1.70;;;1.70;;
72676;SDS011;60755;51.374;10.662;2023-12-20T01:18:31;2.10;;;2.00;;
72676;SDS011;60755;51.374;10.662;2023-12-20T01:21:02;1.70;;;1.70;;
72676;SDS011;60755;51.374;10.662;2023-12-20T01:23:30;2.60;;;1.80;;
72676;SDS011;60755;51.374;10.662;2023-12-20T01:25:57;1.83;;;1.83;;
72676;SDS011;60755;51.374;10.662;2023-12-20T01:28:25;1.63;;;1.53;;
72676;SDS011;60755;51.374;10.662;2023-12-20T01:30:53;1.80;;;1.80;;
72676;SDS011;60755;51.374;10.662;2023-12-20T01:33:20;1.60;;;1.60;;
72676;SDS011;60755;51.374;10.662;2023-12-20T01:35:47;1.63;;;1.63;;
72676;SDS011;60755;51.374;10.662;2023-12-20T01:38:16;1.60;;;1.60;;
72676;SDS011;60755;51.374;10.662;2023-12-20T01:40:44;1.60;;;1.60;;
72676;SDS011;60755;51.374;10.662;2023-12-20T01:43:11;2.20;;;2.10;;
72676;SDS011;60755;51.374;10.662;2023-12-20T01:45:39;1.70;;;1.70;;
72676;SDS011;60755;51.374;10.662;2023-12-20T01:48:07;1.70;;;1.70;;
72676;SDS011;60755;51.374;10.662;2023-12-20T01:50:35;4.30;;;1.60;;
72676;SDS011;60755;51.374;10.662;2023-12-20T01:53:03;1.70;;;1.60;;
72676;SDS011;60755;51.374;10.662;2023-12-20T01:55:34;1.53;;;1.53;;
72676;SDS011;60755;51.374;10.662;2023-12-20T01:58:03;1.63;;;1.63;;
72676;SDS011;60755;51.374;10.662;2023-12-20T02:00:31;1.53;;;1.53;;
72676;SDS011;60755;51.374;10.662;2023-12-20T02:02:59;1.60;;;1.60;;
72676;SDS011;60755;51.374;10.662;2023-12-20T02:05:29;1.50;;;1.40;;
72676;SDS011;60755;51.374;10.662;2023-12-20T02:07:56;1.40;;;1.40;;
72676;SDS011;60755;51.374;10.662;2023-12-20T02:10:24;1.63;;;1.63;;
72676;SDS011;60755;51.374;10.662;2023-12-20T02:12:53;1.60;;;1.50;;
72676;SDS011;60755;51.374;10.662;2023-12-20T02:15:20;1.80;;;1.70;;
72676;SDS011;60755;51.374;10.662;2023-12-20T02:17:48;1.30;;;1.30;;
72676;SDS011;60755;51.374;10.662;2023-12-20T02:20:15;1.50;;;1.50;;
72676;SDS011;60755;51.374;10.662;2023-12-20T02:22:44;1.47;;;1.47;;
72676;SDS011;60755;51.374;10.662;2023-12-20T02:25:12;1.43;;;1.43;;
72676;SDS011;60755;51.374;10.662;2023-12-20T02:27:39;1.90;;;1.80;;
72676;SDS011;60755;51.374;10.662;2023-12-20T02:30:07;2.70;;;2.50;;
72676;SDS011;60755;51.374;10.662;2023-12-20T02:32:35;1.83;;;1.80;;
72676;SDS011;60755;51.374;10.662;2023-12-20T02:35:02;2.00;;;1.90;;
72676;SDS011;60755;51.374;10.662;2023-12-20T02:37:29;2.00;;;1.90;;
72676;SDS011;60755;51.374;10.662;2023-12-20T02:39:58;2.03;;;1.90;;
72676;SDS011;60755;51.374;10.662;2023-12-20T02:42:25;2.30;;;2.20;;
72676;SDS011;60755;51.374;10.662;2023-12-20T02:44:52;2.63;;;2.43;;
72676;SDS011;60755;51.374;10.662;2023-12-20T02:47:19;3.63;;;3.33;;
72676;SDS011;60755;51.374;10.662;2023-12-20T02:49:46;2.90;;;2.70;;
72676;SDS011;60755;51.374;10.662;2023-12-20T02:52:14;3.73;;;3.43;;
72676;SDS011;60755;51.374;10.662;2023-12-20T02:54:42;3.00;;;2.87;;
72676;SDS011;60755;51.374;10.662;2023-12-20T02:57:10;3.30;;;3.10;;
72676;SDS011;60755;51.374;10.662;2023-12-20T02:59:37;3.73;;;3.50;;
72676;SDS011;60755;51.374;10.662;2023-12-20T03:02:05;2.53;;;2.43;;
72676;SDS011;60755;51.374;10.662;2023-12-20T03:04:32;2.70;;;2.50;;
72676;SDS011;60755;51.374;10.662;2023-12-20T03:06:59;2.80;;;2.60;;
72676;SDS011;60755;51.374;10.662;2023-12-20T03:09:26;3.70;;;2.70;;
72676;SDS011;60755;51.374;10.662;2023-12-20T03:11:53;2.57;;;2.37;;
72676;SDS011;60755;51.374;10.662;2023-12-20T03:14:22;2.47;;;2.37;;
72676;SDS011;60755;51.374;10.662;2023-12-20T03:16:49;1.70;;;1.70;;
72676;SDS011;60755;51.374;10.662;2023-12-20T03:19:17;2.10;;;2.00;;
72676;SDS011;60755;51.374;10.662;2023-12-20T03:21:45;1.70;;;1.60;;
72676;SDS011;60755;51.374;10.662;2023-12-20T03:24:12;4.40;;;1.70;;
72676;SDS011;60755;51.374;10.662;2023-12-20T03:26:40;2.43;;;1.60;;
72676;SDS011;60755;51.374;10.662;2023-12-20T03:29:07;1.70;;;1.60;;
72676;SDS011;60755;51.374;10.662;2023-12-20T03:31:35;1.43;;;1.37;;
72676;SDS011;60755;51.374;10.662;2023-12-20T03:34:03;1.63;;;1.53;;
72676;SDS011;60755;51.374;10.662;2023-12-20T03:36:30;3.90;;;1.73;;
72676;SDS011;60755;51.374;10.662;2023-12-20T03:38:57;1.60;;;1.50;;
72676;SDS011;60755;51.374;10.662;2023-12-20T03:41:24;1.67;;;1.60;;
72676;SDS011;60755;51.374;10.662;2023-12-20T03:43:52;1.80;;;1.70;;
72676;SDS011;60755;51.374;10.662;2023-12-20T03:46:19;1.67;;;1.57;;
72676;SDS011;60755;51.374;10.662;2023-12-20T03:48:47;1.70;;;1.60;;
72676;SDS011;60755;51.374;10.662;2023-12-20T03:51:15;1.80;;;1.70;;
72676;SDS011;60755;51.374;10.662;2023-12-20T03:53:42;1.77;;;1.67;;
72676;SDS011;60755;51.374;10.662;2023-12-20T03:56:09;2.30;;;1.83;;
72676;SDS011;60755;51.374;10.662;2023-12-20T03:58:36;1.83;;;1.40;;
72676;SDS011;60755;51.374;10.662;2023-12-20T04:01:08;1.60;;;1.50;;
72676;SDS011;60755;51.374;10.662;2023-12-20T04:03:37;6.00;;;2.40;;
72676;SDS011;60755;51.374;10.662;2023-12-20T04:06:06;4.63;;;2.27;;
72676;SDS011;60755;51.374;10.662;2023-12-20T04:08:33;2.20;;;2.10;;
72676;SDS011;60755;51.374;10.662;2023-12-20T04:11:00;4.10;;;2.63;;
72676;SDS011;60755;51.374;10.662;2023-12-20T04:13:28;2.60;;;2.40;;
72676;SDS011;60755;51.374;10.662;2023-12-20T04:15:55;2.83;;;2.63;;
72676;SDS011;60755;51.374;10.662;2023-12-20T04:18:22;2.80;;;2.37;;
72676;SDS011;60755;51.374;10.662;2023-12-20T04:20:49;2.47;;;2.20;;
72676;SDS011;60755;51.374;10.662;2023-12-20T04:23:18;2.57;;;2.37;;
72676;SDS011;60755;51.374;10.662;2023-12-20T04:25:46;4.00;;;2.97;;
72676;SDS011;60755;51.374;10.662;2023-12-20T04:28:13;2.73;;;2.53;;
72676;SDS011;60755;51.374;10.662;2023-12-20T04:30:41;2.53;;;2.40;;
72676;SDS011;60755;51.374;10.662;2023-12-20T04:33:08;2.50;;;2.30;;
72676;SDS011;60755;51.374;10.662;2023-12-20T04:35:36;2.20;;;1.90;;
72676;SDS011;60755;51.374;10.662;2023-12-20T04:38:03;4.13;;;1.93;;
72676;SDS011;60755;51.374;10.662;2023-12-20T04:40:32;2.80;;;2.60;;
72676;SDS011;60755;51.374;10.662;2023-12-20T04:42:59;4.07;;;2.57;;
72676;SDS011;60755;51.374;10.662;2023-12-20T04:45:26;2.70;;;2.10;;
72676;SDS011;60755;51.374;10.662;2023-12-20T04:47:54;3.13;;;2.30;;
72676;SDS011;60755;51.374;10.662;2023-12-20T04:50:22;2.50;;;2.30;;
72676;SDS011;60755;51.374;10.662;2023-12-20T04:52:49;3.20;;;2.20;;
72676;SDS011;60755;51.374;10.662;2023-12-20T04:55:16;6.87;;;2.20;;
72676;SDS011;60755;51.374;10.662;2023-12-20T04:57:45;3.63;;;2.43;;
72676;SDS011;60755;51.374;10.662;2023-12-20T05:00:13;3.43;;;2.23;;
72676;SDS011;60755;51.374;10.662;2023-12-20T05:02:41;3.73;;;2.37;;
72676;SDS011;60755;51.374;10.662;2023-12-20T05:05:08;7.30;;;3.13;;
72676;SDS011;60755;51.374;10.662;2023-12-20T05:07:35;2.80;;;2.60;;
72676;SDS011;60755;51.374;10.662;2023-12-20T05:10:03;3.80;;;2.40;;
72676;SDS011;60755;51.374;10.662;2023-12-20T05:12:31;2.80;;;2.40;;
72676;SDS011;60755;51.374;10.662;2023-12-20T05:14:59;7.83;;;2.63;;
72676;SDS011;60755;51.374;10.662;2023-12-20T05:17:27;6.63;;;2.27;;
72676;SDS011;60755;51.374;10.662;2023-12-20T05:19:54;2.40;;;2.20;;
72676;SDS011;60755;51.374;10.662;2023-12-20T05:22:21;5.23;;;2.50;;
72676;SDS011;60755;51.374;10.662;2023-12-20T05:24:48;4.87;;;2.27;;
72676;SDS011;60755;51.374;10.662;2023-12-20T05:27:16;5.63;;;2.53;;
72676;SDS011;60755;51.374;10.662;2023-12-20T05:29:43;3.60;;;2.23;;
72676;SDS011;60755;51.374;10.662;2023-12-20T05:32:11;4.47;;;2.43;;
72676;SDS011;60755;51.374;10.662;2023-12-20T05:34:38;5.07;;;2.60;;
72676;SDS011;60755;51.374;10.662;2023-12-20T05:37:06;4.80;;;2.53;;
72676;SDS011;60755;51.374;10.662;2023-12-20T05:39:33;5.33;;;2.63;;
72676;SDS011;60755;51.374;10.662;2023-12-20T05:42:00;6.23;;;2.33;;
72676;SDS011;60755;51.374;10.662;2023-12-20T05:44:27;3.70;;;2.20;;
72676;SDS011;60755;51.374;10.662;2023-12-20T05:46:54;5.90;;;2.57;;
72676;SDS011;60755;51.374;10.662;2023-12-20T05:49:23;4.47;;;1.97;;
72676;SDS011;60755;51.374;10.662;2023-12-20T05:51:50;2.90;;;1.90;;
72676;SDS011;60755;51.374;10.662;2023-12-20T05:54:18;2.60;;;2.20;;
72676;SDS011;60755;51.374;10.662;2023-12-20T05:56:45;3.60;;;2.40;;
72676;SDS011;60755;51.374;10.662;2023-12-20T05:59:12;6.57;;;2.97;;
72676;SDS011;60755;51.374;10.662;2023-12-20T06:01:39;3.70;;;3.00;;
72676;SDS011;60755;51.374;10.662;2023-12-20T06:04:06;8.60;;;4.17;;
72676;SDS011;60755;51.374;10.662;2023-12-20T06:06:35;2.50;;;2.00;;
72676;SDS011;60755;51.374;10.662;2023-12-20T06:09:07;4.73;;;2.23;;
72676;SDS011;60755;51.374;10.662;2023-12-20T06:11:34;3.70;;;2.40;;
72676;SDS011;60755;51.374;10.662;2023-12-20T06:14:02;2.67;;;2.40;;
72676;SDS011;60755;51.374;10.662;2023-12-20T06:16:29;4.03;;;2.73;;
72676;SDS011;60755;51.374;10.662;2023-12-20T06:18:56;5.80;;;3.80;;
72676;SDS011;60755;51.374;10.662;2023-12-20T06:21:23;3.60;;;2.27;;
72676;SDS011;60755;51.374;10.662;2023-12-20T06:23:52;3.73;;;2.10;;
72676;SDS011;60755;51.374;10.662;2023-12-20T06:26:20;5.43;;;2.93;;
72676;SDS011;60755;51.374;10.662;2023-12-20T06:28:47;4.73;;;2.47;;
72676;SDS011;60755;51.374;10.662;2023-12-20T06:31:14;5.67;;;2.40;;
72676;SDS011;60755;51.374;10.662;2023-12-20T06:33:42;4.70;;;2.43;;
72676;SDS011;60755;51.374;10.662;2023-12-20T06:36:11;5.60;;;2.67;;
72676;SDS011;60755;51.374;10.662;2023-12-20T06:38:37;4.73;;;2.60;;
72676;SDS011;60755;51.374;10.662;2023-12-20T06:41:06;8.20;;;3.10;;
72676;SDS011;60755;51.374;10.662;2023-12-20T06:43:33;3.90;;;2.63;;
72676;SDS011;60755;51.374;10.662;2023-12-20T06:46:01;2.93;;;2.47;;
72676;SDS011;60755;51.374;10.662;2023-12-20T06:48:28;4.20;;;2.30;;
72676;SDS011;60755;51.374;10.662;2023-12-20T06:50:55;8.10;;;3.10;;
72676;SDS011;60755;51.374;10.662;2023-12-20T06:53:22;9.10;;;3.50;;
72676;SDS011;60755;51.374;10.662;2023-12-20T06:55:50;5.63;;;2.70;;
72676;SDS011;60755;51.374;10.662;2023-12-20T06:58:19;2.70;;;2.50;;
72676;SDS011;60755;51.374;10.662;2023-12-20T07:00:46;4.33;;;2.17;;
72676;SDS011;60755;51.374;10.662;2023-12-20T07:03:14;5.30;;;2.60;;
72676;SDS011;60755;51.374;10.662;2023-12-20T07:05:41;6.77;;;2.50;;
72676;SDS011;60755;51.374;10.662;2023-12-20T07:08:08;4.27;;;2.17;;
72676;SDS011;60755;51.374;10.662;2023-12-20T07:10:36;5.30;;;2.10;;
72676;SDS011;60755;51.374;10.662;2023-12-20T07:13:03;5.23;;;2.10;;
72676;SDS011;60755;51.374;10.662;2023-12-20T07:15:32;4.80;;;2.30;;
72676;SDS011;60755;51.374;10.662;2023-12-20T07:17:59;5.17;;;2.33;;
72676;SDS011;60755;51.374;10.662;2023-12-20T07:20:26;6.97;;;3.33;;
72676;SDS011;60755;51.374;10.662;2023-12-20T07:22:54;6.50;;;3.03;;
72676;SDS011;60755;51.374;10.662;2023-12-20T07:25:21;6.13;;;2.13;;
72676;SDS011;60755;51.374;10.662;2023-12-20T07:27:48;5.67;;;2.30;;
72676;SDS011;60755;51.374;10.662;2023-12-20T07:30:16;8.57;;;2.90;;
72676;SDS011;60755;51.374;10.662;2023-12-20T07:32:44;4.47;;;2.87;;
72676;SDS011;60755;51.374;10.662;2023-12-20T07:35:13;8.37;;;3.13;;
72676;SDS011;60755;51.374;10.662;2023-12-20T07:37:40;6.43;;;3.30;;
72676;SDS011;60755;51.374;10.662;2023-12-20T07:40:07;7.83;;;2.70;;
72676;SDS011;60755;51.374;10.662;2023-12-20T07:42:35;8.27;;;2.57;;
72676;SDS011;60755;51.374;10.662;2023-12-20T07:45:03;5.97;;;2.63;;
72676;SDS011;60755;51.374;10.662;2023-12-20T07:47:30;4.57;;;2.50;;
72676;SDS011;60755;51.374;10.662;2023-12-20T07:49:59;3.30;;;2.33;;
72676;SDS011;60755;51.374;10.662;2023-12-20T07:52:26;8.00;;;3.67;;
72676;SDS011;60755;51.374;10.662;2023-12-20T07:54:54;3.93;;;2.43;;
72676;SDS011;60755;51.374;10.662;2023-12-20T07:57:21;2.87;;;2.23;;
72676;SDS011;60755;51.374;10.662;2023-12-20T07:59:48;6.00;;;3.13;;
72676;SDS011;60755;51.374;10.662;2023-12-20T08:02:15;4.23;;;2.70;;
72676;SDS011;60755;51.374;10.662;2023-12-20T08:04:43;5.40;;;2.70;;
72676;SDS011;60755;51.374;10.662;2023-12-20T08:07:11;4.10;;;2.80;;
72676;SDS011;60755;51.374;10.662;2023-12-20T08:09:38;4.47;;;3.10;;
72676;SDS011;60755;51.374;10.662;2023-12-20T08:12:06;9.03;;;2.90;;
72676;SDS011;60755;51.374;10.662;2023-12-20T08:14:35;3.87;;;2.90;;
72676;SDS011;60755;51.374;10.662;2023-12-20T08:17:02;3.73;;;2.50;;
72676;SDS011;60755;51.374;10.662;2023-12-20T08:19:30;10.93;;;4.07;;
72676;SDS011;60755;51.374;10.662;2023-12-20T08:21:57;5.03;;;3.20;;
72676;SDS011;60755;51.374;10.662;2023-12-20T08:24:25;9.10;;;4.97;;
72676;SDS011;60755;51.374;10.662;2023-12-20T08:26:52;11.30;;;5.17;;
72676;SDS011;60755;51.374;10.662;2023-12-20T08:29:20;8.47;;;3.27;;
72676;SDS011;60755;51.374;10.662;2023-12-20T08:31:51;9.03;;;3.30;;
72676;SDS011;60755;51.374;10.662;2023-12-20T08:34:19;10.43;;;6.20;;
72676;SDS011;60755;51.374;10.662;2023-12-20T08:36:46;5.23;;;3.73;;
72676;SDS011;60755;51.374;10.662;2023-12-20T08:39:13;10.23;;;4.17;;
72676;SDS011;60755;51.374;10.662;2023-12-20T08:41:42;6.40;;;3.10;;
72676;SDS011;60755;51.374;10.662;2023-12-20T08:44:09;3.20;;;2.53;;
72676;SDS011;60755;51.374;10.662;2023-12-20T08:46:37;8.93;;;3.20;;
72676;SDS011;60755;51.374;10.662;2023-12-20T08:49:04;5.37;;;3.27;;
72676;SDS011;60755;51.374;10.662;2023-12-20T08:51:31;5.63;;;3.30;;
72676;SDS011;60755;51.374;10.662;2023-12-20T08:53:59;4.33;;;3.00;;
72676;SDS011;60755;51.374;10.662;2023-12-20T08:56:26;6.40;;;2.87;;
72676;SDS011;60755;51.374;10.662;2023-12-20T08:58:55;5.17;;;2.83;;
72676;SDS011;60755;51.374;10.662;2023-12-20T09:01:22;8.30;;;3.00;;
72676;SDS011;60755;51.374;10.662;2023-12-20T09:03:49;4.17;;;2.97;;
72676;SDS011;60755;51.374;10.662;2023-12-20T09:06:16;6.20;;;3.00;;
72676;SDS011;60755;51.374;10.662;2023-12-20T09:08:43;4.17;;;2.53;;
72676;SDS011;60755;51.374;10.662;2023-12-20T09:11:11;3.10;;;2.80;;
72676;SDS011;60755;51.374;10.662;2023-12-20T09:13:38;7.17;;;2.93;;
72676;SDS011;60755;51.374;10.662;2023-12-20T09:16:08;6.83;;;2.70;;
72676;SDS011;60755;51.374;10.662;2023-12-20T09:18:35;3.60;;;2.93;;
72676;SDS011;60755;51.374;10.662;2023-12-20T09:21:02;8.73;;;3.40;;
72676;SDS011;60755;51.374;10.662;2023-12-20T09:23:30;7.67;;;3.17;;
72676;SDS011;60755;51.374;10.662;2023-12-20T09:25:57;5.47;;;3.13;;
72676;SDS011;60755;51.374;10.662;2023-12-20T09:28:24;6.20;;;3.13;;
72676;SDS011;60755;51.374;10.662;2023-12-20T09:30:51;4.87;;;2.83;;
72676;SDS011;60755;51.374;10.662;2023-12-20T09:33:20;9.17;;;3.00;;
72676;SDS011;60755;51.374;10.662;2023-12-20T09:35:47;4.37;;;2.30;;
72676;SDS011;60755;51.374;10.662;2023-12-20T09:38:14;6.60;;;3.00;;
72676;SDS011;60755;51.374;10.662;2023-12-20T09:40:43;4.03;;;2.80;;
72676;SDS011;60755;51.374;10.662;2023-12-20T09:43:10;4.83;;;2.50;;
72676;SDS011;60755;51.374;10.662;2023-12-20T09:45:40;7.83;;;2.87;;
72676;SDS011;60755;51.374;10.662;2023-12-20T09:48:12;4.53;;;2.50;;
72676;SDS011;60755;51.374;10.662;2023-12-20T09:50:42;5.40;;;2.60;;
72676;SDS011;60755;51.374;10.662;2023-12-20T09:53:10;5.63;;;2.47;;
72676;SDS011;60755;51.374;10.662;2023-12-20T09:55:41;2.87;;;2.57;;
72676;SDS011;60755;51.374;10.662;2023-12-20T09:58:09;7.33;;;2.50;;
72676;SDS011;60755;51.374;10.662;2023-12-20T10:00:36;6.23;;;2.93;;
72676;SDS011;60755;51.374;10.662;2023-12-20T10:03:03;7.50;;;3.20;;
72676;SDS011;60755;51.374;10.662;2023-12-20T10:05:33;6.43;;;2.83;;
72676;SDS011;60755;51.374;10.662;2023-12-20T10:08:02;5.60;;;2.70;;
72676;SDS011;60755;51.374;10.662;2023-12-20T10:10:30;4.97;;;2.13;;
72676;SDS011;60755;51.374;10.662;2023-12-20T10:13:01;5.80;;;2.63;;
72676;SDS011;60755;51.374;10.662;2023-12-20T10:15:29;4.53;;;2.60;;
72676;SDS011;60755;51.374;10.662;2023-12-20T10:17:57;3.93;;;2.10;;
72676;SDS011;60755;51.374;10.662;2023-12-20T10:20:25;4.50;;;2.80;;
72676;SDS011;60755;51.374;10.662;2023-12-20T10:22:54;3.90;;;2.50;;
72676;SDS011;60755;51.374;10.662;2023-12-20T10:25:23;8.17;;;2.70;;
72676;SDS011;60755;51.374;10.662;2023-12-20T10:30:36;8.80;;;2.70;;
72676;SDS011;60755;51.374;10.662;2023-12-20T10:33:04;8.97;;;4.17;;
72676;SDS011;60755;51.374;10.662;2023-12-20T10:35:33;11.73;;;5.20;;
72676;SDS011;60755;51.374;10.662;2023-12-20T10:38:03;3.73;;;2.30;;
72676;SDS011;60755;51.374;10.662;2023-12-20T10:40:33;5.10;;;2.37;;
72676;SDS011;60755;51.374;10.662;2023-12-20T10:43:02;4.93;;;2.40;;
72676;SDS011;60755;51.374;10.662;2023-12-20T10:45:30;5.37;;;2.30;;
72676;SDS011;60755;51.374;10.662;2023-12-20T10:47:57;5.43;;;2.50;;
72676;SDS011;60755;51.374;10.662;2023-12-20T10:50:26;5.73;;;2.47;;
72676;SDS011;60755;51.374;10.662;2023-12-20T10:52:56;7.40;;;2.67;;
72676;SDS011;60755;51.374;10.662;2023-12-20T10:55:24;4.50;;;2.23;;
72676;SDS011;60755;51.374;10.662;2023-12-20T10:57:53;6.70;;;2.43;;
72676;SDS011;60755;51.374;10.662;2023-12-20T11:00:25;2.37;;;2.00;;
72676;SDS011;60755;51.374;10.662;2023-12-20T11:02:53;3.13;;;2.30;;
72676;SDS011;60755;51.374;10.662;2023-12-20T11:05:24;3.03;;;2.70;;
72676;SDS011;60755;51.374;10.662;2023-12-20T11:07:58;3.70;;;2.67;;
72676;SDS011;60755;51.374;10.662;2023-12-20T11:10:39;7.50;;;2.80;;
72676;SDS011;60755;51.374;10.662;2023-12-20T11:13:15;6.60;;;3.33;;
72676;SDS011;60755;51.374;10.662;2023-12-20T11:15:46;2.40;;;2.20;;
72676;SDS011;60755;51.374;10.662;2023-12-20T11:18:14;3.30;;;2.17;;
72676;SDS011;60755;51.374;10.662;2023-12-20T11:20:42;3.57;;;2.40;;
72676;SDS011;60755;51.374;10.662;2023-12-20T11:23:09;6.63;;;2.70;;
72676;SDS011;60755;51.374;10.662;2023-12-20T11:25:50;3.90;;;2.30;;
72676;SDS011;60755;51.374;10.662;2023-12-20T11:28:22;3.47;;;2.53;;
72676;SDS011;60755;51.374;10.662;2023-12-20T11:30:50;4.00;;;2.20;;
72676;SDS011;60755;51.374;10.662;2023-12-20T11:33:22;3.27;;;2.20;;
72676;SDS011;60755;51.374;10.662;2023-12-20T11:35:50;3.57;;;2.10;;
72676;SDS011;60755;51.374;10.662;2023-12-20T11:38:19;2.97;;;1.80;;
72676;SDS011;60755;51.374;10.662;2023-12-20T11:40:47;3.50;;;2.10;;
72676;SDS011;60755;51.374;10.662;2023-12-20T11:43:30;2.57;;;2.00;;
72676;SDS011;60755;51.374;10.662;2023-12-20T11:46:02;2.03;;;1.83;;
72676;SDS011;60755;51.374;10.662;2023-12-20T11:48:31;3.43;;;2.10;;
72676;SDS011;60755;51.374;10.662;2023-12-20T11:50:59;3.43;;;2.53;;
72676;SDS011;60755;51.374;10.662;2023-12-20T11:53:26;4.10;;;2.10;;
72676;SDS011;60755;51.374;10.662;2023-12-20T11:55:53;2.07;;;1.80;;
72676;SDS011;60755;51.374;10.662;2023-12-20T11:58:21;2.67;;;1.90;;
72676;SDS011;60755;51.374;10.662;2023-12-20T12:00:50;2.17;;;2.00;;
72676;SDS011;60755;51.374;10.662;2023-12-20T12:03:18;2.77;;;2.00;;
72676;SDS011;60755;51.374;10.662;2023-12-20T12:05:47;2.00;;;1.90;;
72676;SDS011;60755;51.374;10.662;2023-12-20T12:08:14;5.73;;;2.60;;
72676;SDS011;60755;51.374;10.662;2023-12-20T12:10:42;4.63;;;2.30;;
72676;SDS011;60755;51.374;10.662;2023-12-20T12:13:09;2.03;;;1.80;;
72676;SDS011;60755;51.374;10.662;2023-12-20T12:15:37;3.87;;;2.30;;
72676;SDS011;60755;51.374;10.662;2023-12-20T12:18:06;3.17;;;1.90;;
72676;SDS011;60755;51.374;10.662;2023-12-20T12:20:34;3.07;;;2.43;;
72676;SDS011;60755;51.374;10.662;2023-12-20T12:23:02;4.07;;;1.97;;
72676;SDS011;60755;51.374;10.662;2023-12-20T12:25:30;4.77;;;1.97;;
72676;SDS011;60755;51.374;10.662;2023-12-20T12:27:59;3.57;;;2.20;;
72676;SDS011;60755;51.374;10.662;2023-12-20T12:30:26;2.80;;;1.90;;
72676;SDS011;60755;51.374;10.662;2023-12-20T12:32:55;4.07;;;2.17;;
72676;SDS011;60755;51.374;10.662;2023-12-20T12:35:24;2.00;;;1.90;;
72676;SDS011;60755;51.374;10.662;2023-12-20T12:37:52;6.27;;;2.23;;
72676;SDS011;60755;51.374;10.662;2023-12-20T12:40:19;2.90;;;2.00;;
72676;SDS011;60755;51.374;10.662;2023-12-20T12:42:46;3.43;;;2.30;;
72676;SDS011;60755;51.374;10.662;2023-12-20T12:45:14;2.63;;;2.23;;
72676;SDS011;60755;51.374;10.662;2023-12-20T12:47:41;3.23;;;1.90;;
72676;SDS011;60755;51.374;10.662;2023-12-20T12:50:08;2.73;;;2.50;;
72676;SDS011;60755;51.374;10.662;2023-12-20T12:52:37;4.10;;;1.90;;
72676;SDS011;60755;51.374;10.662;2023-12-20T12:55:04;4.10;;;2.40;;
72676;SDS011;60755;51.374;10.662;2023-12-20T12:57:32;2.87;;;2.00;;
72676;SDS011;60755;51.374;10.662;2023-12-20T13:00:00;3.90;;;2.77;;
72676;SDS011;60755;51.374;10.662;2023-12-20T13:02:28;3.93;;;2.23;;
72676;SDS011;60755;51.374;10.662;2023-12-20T13:04:56;2.37;;;2.23;;
72676;SDS011;60755;51.374;10.662;2023-12-20T13:07:23;5.13;;;3.10;;
72676;SDS011;60755;51.374;10.662;2023-12-20T13:09:52;2.60;;;2.40;;
72676;SDS011;60755;51.374;10.662;2023-12-20T13:12:19;2.90;;;2.10;;
72676;SDS011;60755;51.374;10.662;2023-12-20T13:14:47;5.27;;;2.07;;
72676;SDS011;60755;51.374;10.662;2023-12-20T13:17:14;2.67;;;2.07;;
72676;SDS011;60755;51.374;10.662;2023-12-20T13:19:42;2.40;;;2.20;;
72676;SDS011;60755;51.374;10.662;2023-12-20T13:22:09;3.03;;;2.10;;
72676;SDS011;60755;51.374;10.662;2023-12-20T13:24:37;2.27;;;2.10;;
72676;SDS011;60755;51.374;10.662;2023-12-20T13:27:06;7.33;;;2.50;;
72676;SDS011;60755;51.374;10.662;2023-12-20T13:29:33;4.80;;;2.60;;
72676;SDS011;60755;51.374;10.662;2023-12-20T13:32:00;3.03;;;2.17;;
72676;SDS011;60755;51.374;10.662;2023-12-20T13:34:29;2.40;;;2.20;;
72676;SDS011;60755;51.374;10.662;2023-12-20T13:36:56;2.10;;;2.00;;
72676;SDS011;60755;51.374;10.662;2023-12-20T13:39:24;4.27;;;2.43;;
72676;SDS011;60755;51.374;10.662;2023-12-20T13:41:51;2.33;;;2.23;;
72676;SDS011;60755;51.374;10.662;2023-12-20T13:44:20;2.70;;;2.40;;
72676;SDS011;60755;51.374;10.662;2023-12-20T13:46:47;3.30;;;2.30;;
72676;SDS011;60755;51.374;10.662;2023-12-20T13:49:15;2.50;;;2.30;;
72676;SDS011;60755;51.374;10.662;2023-12-20T13:51:43;4.87;;;3.43;;
72676;SDS011;60755;51.374;10.662;2023-12-20T13:54:10;2.27;;;1.87;;
72676;SDS011;60755;51.374;10.662;2023-12-20T13:56:37;2.97;;;2.50;;
72676;SDS011;60755;51.374;10.662;2023-12-20T13:59:07;2.43;;;2.30;;
72676;SDS011;60755;51.374;10.662;2023-12-20T14:01:36;2.33;;;2.20;;
72676;SDS011;60755;51.374;10.662;2023-12-20T14:04:03;2.50;;;2.30;;
72676;SDS011;60755;51.374;10.662;2023-12-20T14:06:31;2.20;;;2.07;;
72676;SDS011;60755;51.374;10.662;2023-12-20T14:08:57;3.23;;;2.57;;
72676;SDS011;60755;51.374;10.662;2023-12-20T14:11:25;3.33;;;2.43;;
72676;SDS011;60755;51.374;10.662;2023-12-20T14:13:53;3.00;;;2.60;;
72676;SDS011;60755;51.374;10.662;2023-12-20T14:16:23;3.23;;;3.03;;
72676;SDS011;60755;51.374;10.662;2023-12-20T14:18:52;5.20;;;2.43;;
72676;SDS011;60755;51.374;10.662;2023-12-20T14:21:22;1.90;;;1.80;;
72676;SDS011;60755;51.374;10.662;2023-12-20T14:23:50;2.37;;;2.13;;
72676;SDS011;60755;51.374;10.662;2023-12-20T14:26:18;4.30;;;2.10;;
72676;SDS011;60755;51.374;10.662;2023-12-20T14:28:45;2.50;;;2.33;;
72676;SDS011;60755;51.374;10.662;2023-12-20T14:31:12;1.60;;;1.60;;
72676;SDS011;60755;51.374;10.662;2023-12-20T14:33:40;1.90;;;1.80;;
72676;SDS011;60755;51.374;10.662;2023-12-20T14:36:09;1.50;;;1.40;;
72676;SDS011;60755;51.374;10.662;2023-12-20T14:38:37;1.93;;;1.83;;
72676;SDS011;60755;51.374;10.662;2023-12-20T14:41:04;2.10;;;1.90;;